Latest Weather Observations for Norseman Airport

IDW60801

Issued at 9:33 am WST Tuesday 27 September 2016 (issued every 30 minutes, with the page automatically refreshed every 10 minutes)

About weather observations | Map of weather stations | Latest weather observations for WA | Other Formats
Station Details ID: 012009 Name: NORSEMAN AERO Lat: -32.21 Lon: 121.75 Height: 262.5 m
Data from the previous 72 hours. | See also: Recent months at Norseman Airport
Date/Time
WST
Temp
°C
App
Temp
°C
Dew
Point
°C
Rel
Hum
%
Delta-T
°C
Wind Press
QNH
hPa
Press
MSL
hPa
Rain since
9am
mm
Dir  Spd
km/h
Gust
km/h
Spd
kts
Gust
kts
27/09:30am 16.9 12.9 6.7 51 5.1 WNW 17 28 9 15 1013.3 1013.0 0.0
27/09:00am 16.2 11.8 7.4 56 4.4 WNW 20 28 11 15 1013.9 1013.7 0.0
27/08:30am 14.9 10.6 7.2 60 3.8 W 19 28 10 15 1014.1 1013.9 0.0
27/08:00am 14.0 10.2 7.5 65 3.2 WSW 17 24 9 13 1014.4 1014.2 0.0
27/07:30am 12.7 9.2 7.4 70 2.6 WSW 15 20 8 11 1014.6 1014.4 0.0
27/07:00am 10.3 9.5 6.3 76 1.9 CALM 0 0 0 0 1014.8 1014.6 0.0
27/06:30am 7.8 5.7 5.6 86 1.0 SSW 6 7 3 4 1015.0 1014.8 0.0
27/06:00am 4.9 3.4 3.1 88 0.8 CALM 0 0 0 0 1015.0 1014.8 0.0
27/05:30am 4.6 3.0 2.3 85 0.9 CALM 0 0 0 0 1014.8 1014.6 0.0
27/05:00am 5.7 3.4 2.9 82 1.2 SW 4 6 2 3 1014.7 1014.5 0.0
27/04:30am 7.9 5.6 4.7 80 1.4 WSW 6 9 3 5 1014.8 1014.6 0.0
27/04:00am 9.1 6.0 5.5 78 1.7 W 11 13 6 7 1014.6 1014.4 0.0
27/03:30am 10.3 6.3 6.5 77 1.8 W 17 22 9 12 1014.6 1014.4 0.0
27/03:00am 7.9 5.0 4.5 79 1.5 SW 9 13 5 7 1014.5 1014.3 0.0
27/02:30am 6.8 3.5 2.7 75 1.7 SSW 9 9 5 5 1014.7 1014.5 0.0
27/02:00am 7.8 5.0 3.1 72 2.0 SSW 7 9 4 5 1014.9 1014.7 0.0
27/01:30am 9.4 6.1 4.4 71 2.2 SW 11 13 6 7 1015.4 1015.1 0.0
27/01:00am 9.2 5.4 4.0 70 2.3 SW 13 13 7 7 1015.7 1015.4 0.0
27/12:30am 9.7 5.9 4.1 68 2.5 SW 13 15 7 8 1015.8 1015.5 0.0
27/12:00am 9.0 5.2 3.8 70 2.3 SW 13 15 7 8 1016.0 1015.7 0.0
 
Date/Time
WST
Temp
°C
App
Temp
°C
Dew
Point
°C
Rel
Hum
%
Delta-T
°C
Wind Press
QNH
hPa
Press
MSL
hPa
Rain since
9am
mm
Dir  Spd
km/h
Gust
km/h
Spd
kts
Gust
kts
26/11:30pm 9.2 5.0 3.6 68 2.5 SW 15 17 8 9 1016.1 1015.8 0.0
26/11:00pm 10.5 6.3 4.0 64 2.9 SW 15 15 8 8 1016.3 1016.0 0.0
26/10:30pm 11.4 7.6 3.9 60 3.4 SW 13 15 7 8 1016.4 1016.1 0.0
26/10:00pm 11.9 8.4 3.7 57 3.7 SW 11 11 6 6 1016.4 1016.1 0.0
26/09:30pm 12.0 8.6 3.8 57 3.7 WSW 11 13 6 7 1016.6 1016.3 0.0
26/09:00pm 13.4 9.6 3.8 52 4.4 WSW 13 17 7 9 1016.8 1016.6 0.0
26/08:30pm 14.6 9.9 3.4 47 5.1 SW 17 20 9 11 1016.7 1016.4 0.0
26/08:00pm 14.0 10.7 2.3 45 5.2 WSW 9 11 5 6 1016.6 1016.3 0.0
26/07:30pm 16.1 12.0 2.2 39 6.3 WSW 13 15 7 8 1016.3 1016.0 0.0
26/07:00pm 17.4 12.5 1.8 35 7.1 WSW 17 20 9 11 1015.8 1015.5 0.0
26/06:30pm 18.4 12.1 1.4 32 7.7 WSW 24 30 13 16 1015.3 1015.0 0.0
26/06:00pm 19.4 13.8 0.9 29 8.4 WSW 20 28 11 15 1014.7 1014.5 0.0
26/05:30pm 20.7 13.9 0.5 26 9.2 W 26 35 14 19 1014.4 1014.2 0.0
26/05:00pm 21.6 15.6 0.8 25 9.6 W 22 32 12 17 1014.2 1014.0 0.0
26/04:30pm 21.6 14.4 0.8 25 9.6 W 28 37 15 20 1014.1 1013.9 0.0
26/04:00pm 22.0 16.3 0.5 24 9.9 WNW 20 37 11 20 1014.2 1014.0 0.0
26/03:30pm 21.7 16.0 0.3 24 9.8 WNW 20 32 11 17 1014.3 1014.1 0.0
26/03:00pm 22.1 15.6 0.0 23 10.1 W 24 35 13 19 1014.2 1014.0 0.0
26/02:30pm 21.3 14.1 0.5 25 9.5 WNW 28 39 15 21 1014.4 1014.2 0.0
26/02:22pm 21.4 14.9 0.0 24 9.7 WNW 24 39 13 21 1014.4 1014.2 0.0
26/02:00pm 20.0 13.4 -0.1 26 9.0 NNW 24 39 13 21 1014.6 1014.4 0.0
26/01:30pm 20.3 14.5 -0.3 25 9.2 NW 20 30 11 16 1015.2 1014.9 0.0
26/01:00pm 19.9 14.0 -0.7 25 9.1 WNW 20 35 11 19 1015.8 1015.5 0.0
26/12:30pm 18.9 13.5 -1.5 25 8.8 WNW 17 26 9 14 1016.4 1016.1 0.0
26/12:00pm 18.9 12.7 -0.5 27 8.5 W 22 35 12 19 1017.2 1017.0 0.0
26/11:30am 17.5 11.9 -0.2 30 7.7 W 19 33 10 18 1017.9 1017.7 0.0
26/11:00am 16.8 10.4 -1.8 28 7.8 W 22 35 12 19 1018.4 1018.2 0.0
26/10:30am 16.1 10.4 0.3 34 6.9 WNW 20 37 11 20 1018.6 1018.4 0.0
26/10:00am 14.7 9.1 1.3 40 5.9 NNW 20 35 11 19 1019.2 1018.9 0.0
26/09:30am 13.1 7.2 1.8 46 5.0 N 22 30 12 16 1019.8 1019.5 0.0
26/09:00am 11.7 5.4 1.6 50 4.3 N 24 32 13 17 1019.9 1019.6 0.0
26/08:30am 10.2 4.4 2.3 58 3.4 N 22 28 12 15 1019.8 1019.5 0.0
26/08:00am 8.5 4.8 2.3 65 2.6 NNE 11 15 6 8 1019.8 1019.5 0.0
26/07:30am 5.3 2.1 0.5 71 1.9 NNE 7 9 4 5 1019.6 1019.3 0.0
26/07:00am 3.6 1.7 0.8 82 1.1 CALM 0 0 0 0 1019.6 1019.3 0.0
26/06:30am 0.3 -1.8 -1.1 90 0.5 CALM 0 0 0 0 1019.0 1018.8 0.0
26/06:00am -2.2 -4.6 -3.5 91 0.3 CALM 0 0 0 0 1018.6 1018.4 0.0
26/05:30am -2.8 -5.3 -4.2 90 0.3 CALM 0 0 0 0 1018.5 1018.3 0.0
26/05:00am -2.6 -5.1 -4.2 89 0.4 CALM 0 0 0 0 1018.2 1018.0 0.0
26/04:30am -2.5 -5.0 -4.1 89 0.4 CALM 0 0 0 0 1018.2 1018.0 0.0
26/04:00am -2.3 -4.8 -4.0 88 0.4 CALM 0 6 0 3 1018.3 1018.1 0.0
26/03:30am -1.8 -5.4 -3.5 88 0.5 SSW 6 6 3 3 1018.2 1018.0 0.0
26/03:00am -1.4 -4.9 -3.1 88 0.5 SSW 6 7 3 4 1018.2 1018.0 0.0
26/02:30am -1.1 -4.6 -3.0 87 0.6 SSW 6 7 3 4 1018.2 1018.0 0.0
26/02:00am -0.7 -3.1 -2.9 85 0.7 CALM 0 0 0 0 1018.2 1018.0 0.0
26/01:30am -0.5 -2.9 -3.0 83 0.8 CALM 0 0 0 0 1018.4 1018.2 0.0
26/01:00am 0.2 -2.1 -2.7 81 1.0 CALM 0 0 0 0 1018.6 1018.4 0.0
26/12:30am 0.6 -2.5 -2.6 79 1.1 S 4 7 2 4 1018.8 1018.6 0.0
26/12:00am 1.2 -1.1 -2.5 76 1.4 CALM 0 0 0 0 1018.9 1018.7 0.0
 
Date/Time
WST
Temp
°C
App
Temp
°C
Dew
Point
°C
Rel
Hum
%
Delta-T
°C
Wind Press
QNH
hPa
Press
MSL
hPa
Rain since
9am
mm
Dir  Spd
km/h
Gust
km/h
Spd
kts
Gust
kts
25/11:30pm 1.8 -1.6 -2.3 74 1.4 SSE 6 7 3 4 1019.0 1018.8 0.0
25/11:00pm 2.6 -0.8 -1.7 73 1.5 SSW 6 7 3 4 1019.0 1018.8 0.0
25/10:30pm 3.8 0.5 -1.0 71 1.8 S 6 6 3 3 1019.2 1018.9 0.0
25/10:00pm 5.1 1.8 -0.9 65 2.3 SSW 6 9 3 5 1019.2 1018.9 0.0
25/09:30pm 6.7 3.5 -0.3 61 2.7 SSW 6 7 3 4 1019.2 1018.9 0.0
25/09:00pm 8.1 4.5 0.3 58 3.1 S 9 13 5 7 1019.0 1018.8 0.0
25/08:30pm 9.0 4.7 1.2 58 3.2 S 13 19 7 10 1018.8 1018.6 0.0
25/08:00pm 9.2 5.8 2.1 61 3.0 S 9 17 5 9 1018.6 1018.4 0.0
25/07:30pm 9.7 6.0 2.3 60 3.2 SSE 11 17 6 9 1018.3 1018.1 0.0
25/07:00pm 10.4 6.4 2.7 59 3.4 S 13 17 7 9 1018.0 1017.8 0.0
25/06:30pm 10.9 6.5 2.7 57 3.6 S 15 20 8 11 1017.4 1017.2 0.0
25/06:00pm 11.1 6.9 3.6 60 3.4 S 15 24 8 13 1017.0 1016.8 0.0
25/05:30pm 11.6 6.5 4.3 61 3.3 S 20 32 11 17 1016.9 1016.7 0.0
25/05:00pm 12.4 6.6 4.6 59 3.6 SSW 24 35 13 19 1016.5 1016.2 0.0
25/04:30pm 11.9 6.0 5.8 66 2.9 S 26 35 14 19 1016.1 1015.8 0.0
25/04:00pm 12.3 6.2 6.4 67 2.8 S 28 39 15 21 1015.6 1015.3 0.0
25/03:33pm 12.9 6.4 6.7 66 3.0 S 30 48 16 26 1015.3 1015.0 0.0
25/03:30pm 13.0 6.2 6.8 66 3.0 SSW 32 48 17 26 1015.2 1014.9 0.0
25/03:17pm 14.0 7.0 6.1 59 3.8 SSW 32 54 17 29 1014.7 1014.5 0.0
25/03:00pm 15.1 8.8 5.6 53 4.6 SSW 28 41 15 22 1014.3 1014.1 0.0
25/02:43pm 16.0 9.4 5.9 51 4.9 SSW 30 48 16 26 1014.1 1013.9 0.0
25/02:30pm 16.1 9.4 5.7 50 5.1 SSW 30 41 16 22 1013.8 1013.6 0.0
25/02:00pm 16.1 9.2 4.5 46 5.5 SW 30 41 16 22 1013.4 1013.1 0.0
25/01:30pm 17.8 11.2 4.4 41 6.4 SW 28 39 15 21 1013.3 1013.0 0.0
25/01:00pm 17.6 11.4 4.2 41 6.4 WSW 26 41 14 22 1013.4 1013.1 0.0
25/12:30pm 16.7 9.4 4.7 45 5.8 WSW 32 43 17 23 1013.7 1013.5 0.0
25/12:00pm 18.4 12.2 4.2 39 6.8 SW 26 37 14 20 1013.8 1013.6 0.0
25/11:30am 18.0 10.9 3.5 38 6.9 W 30 39 16 21 1013.8 1013.6 0.0
25/11:00am 17.3 11.3 3.2 39 6.6 W 24 37 13 20 1013.9 1013.7 0.0
25/10:30am 16.7 9.7 2.0 37 6.7 WSW 28 37 15 20 1014.0 1013.8 0.0
25/10:00am 16.2 10.1 2.6 40 6.2 WSW 24 37 13 20 1014.2 1014.0 0.0
25/09:30am 15.6 8.7 2.7 42 5.9 SW 28 41 15 22 1014.2 1014.0 0.0
25/09:00am 15.0 8.6 3.2 45 5.4 WSW 26 35 14 19 1014.4 1014.2 0.0
25/08:30am 13.7 7.6 2.9 48 4.9 WSW 24 32 13 17 1014.5 1014.3 0.0
25/08:00am 11.3 7.9 1.8 52 4.1 SW 9 13 5 7 1014.5 1014.3 0.0
25/07:30am 8.7 5.6 1.6 61 3.0 SW 7 11 4 6 1014.6 1014.4 0.0
25/07:00am 5.9 4.1 0.9 70 2.0 CALM 0 0 0 0 1014.5 1014.3 0.0
25/06:30am 2.3 0.2 -0.6 81 1.1 CALM 0 0 0 0 1014.1 1013.9 0.0
25/06:00am -0.3 -2.7 -2.8 83 0.8 CALM 0 0 0 0 1013.9 1013.7 0.0
25/05:30am -0.3 -2.7 -3.2 81 1.0 CALM 0 0 0 0 1013.7 1013.5 0.0
25/05:00am -0.2 -2.7 -3.7 77 1.2 CALM 0 0 0 0 1013.4 1013.1 0.0
25/04:30am -0.4 -2.9 -4.3 75 1.3 CALM 0 0 0 0 1013.1 1012.8 0.0
25/04:00am 0.3 -2.2 -3.8 74 1.4 CALM 0 0 0 0 1012.8 1012.5 0.0
25/03:30am 0.6 -1.9 -3.7 73 1.5 CALM 0 0 0 0 1012.8 1012.5 0.0
25/03:00am 0.6 -1.9 -4.0 71 1.6 CALM 0 0 0 0 1012.8 1012.5 0.0
25/02:30am 1.0 -2.6 -4.0 69 1.7 S 6 7 3 4 1012.9 1012.6 0.0
25/02:00am 1.2 -2.5 -4.4 66 1.9 S 6 7 3 4 1013.1 1012.8 0.0
25/01:30am 1.7 -1.2 -4.2 65 2.1 S 2 9 1 5 1013.3 1013.0 0.0
25/01:00am 2.6 -1.2 -3.9 62 2.2 S 7 9 4 5 1013.4 1013.1 0.0
25/12:30am 3.9 -0.6 -3.4 59 2.6 SW 11 13 6 7 1013.4 1013.1 0.0
25/12:00am 5.3 0.5 -2.5 57 2.8 SW 13 15 7 8 1013.4 1013.1 0.0
 
Date/Time
WST
Temp
°C
App
Temp
°C
Dew
Point
°C
Rel
Hum
%
Delta-T
°C
Wind Press
QNH
hPa
Press
MSL
hPa
Rain since
9am
mm
Dir  Spd
km/h
Gust
km/h
Spd
kts
Gust
kts
24/11:30pm 4.7 1.0 -3.3 56 2.8 SW 7 9 4 5 1013.3 1013.0 0.0
24/11:00pm 5.3 1.1 -3.5 53 3.1 S 9 9 5 5 1013.6 1013.4 0.0
24/10:30pm 5.2 0.3 -3.1 55 3.0 SW 13 15 7 8 1014.0 1013.8 0.0
24/10:00pm 4.9 1.3 -3.4 55 2.9 SSW 6 7 3 4 1013.9 1013.7 0.0
24/09:30pm 5.6 2.0 -3.5 52 3.2 S 6 9 3 5 1014.0 1013.8 0.0
24/09:00pm 6.2 2.4 -3.4 50 3.5 SSW 7 9 4 5 1014.1 1013.9 0.0
24/08:30pm 6.5 3.7 -3.4 49 3.6 ESE 2 7 1 4 1014.1 1013.9 0.0
24/08:00pm 7.7 4.1 -3.5 45 4.1 SE 6 7 3 4 1014.0 1013.8 0.0
24/07:30pm 9.5 5.8 -3.1 41 4.8 SSE 7 9 4 5 1013.7 1013.5 0.0
24/07:00pm 10.8 8.4 -2.9 38 5.3 CALM 0 0 0 0 1013.4 1013.1 0.0
24/06:30pm 15.2 11.6 -2.2 30 7.1 NW 7 9 4 5 1013.0 1012.7 0.0
24/06:00pm 16.3 11.5 -2.2 28 7.7 NW 13 19 7 10 1012.8 1012.5 0.0
24/05:30pm 17.2 12.4 -2.4 26 8.1 NW 13 19 7 10 1012.6 1012.3 0.0
24/05:00pm 17.5 11.9 -2.7 25 8.4 NW 17 26 9 14 1012.6 1012.3 0.0
24/04:30pm 18.2 13.4 -2.7 24 8.7 NW 13 20 7 11 1012.5 1012.2 0.0
24/04:00pm 18.1 14.0 -3.3 23 8.8 NNW 9 15 5 8 1012.5 1012.2 0.0
24/03:30pm 17.7 13.8 -4.9 21 9.0 SE 7 11 4 6 1012.5 1012.2 0.0
24/03:00pm 17.8 11.6 -4.8 21 9.0 W 19 32 10 17 1012.8 1012.5 0.0
24/02:30pm 17.6 13.8 -3.7 23 8.7 ENE 7 17 4 9 1012.8 1012.5 0.0
24/02:00pm 17.5 12.2 -3.3 24 8.5 NW 15 26 8 14 1013.0 1012.7 0.0
24/01:30pm 16.8 10.8 -3.3 25 8.2 NNW 19 33 10 18 1013.3 1013.0 0.0
24/01:00pm 16.3 11.8 -3.2 26 7.9 WNW 11 22 6 12 1014.0 1013.8 0.0
24/12:30pm 15.7 11.2 -3.2 27 7.6 WSW 11 20 6 11 1014.6 1014.4 0.0
24/12:00pm 15.5 10.2 -3.4 27 7.6 WNW 15 26 8 14 1015.2 1014.9 0.0
24/11:30am 14.5 10.4 -2.8 30 6.9 W 9 17 5 9 1015.8 1015.5 0.0
24/11:00am 14.3 10.3 -2.6 31 6.8 WNW 9 20 5 11 1016.1 1015.8 0.0
24/10:30am 14.0 9.8 -1.2 35 6.3 WNW 11 24 6 13 1016.5 1016.2 0.0
24/10:00am 12.6 7.2 -1.0 39 5.6 W 17 22 9 12 1016.9 1016.7 0.0

Other Formats:

Comma delimited format used in spreadsheet applications
http://www.bom.gov.au/fwo/IDW60801/IDW60801.95642.axf

JavaScript Object Notation format (JSON) in row-major order
http://www.bom.gov.au/fwo/IDW60801/IDW60801.95642.json